Escalante, Utah
Current Conditions -  °F | °C
As of 2:53 AM on Saturday 20 Dec 2014 (Local Time) from KBCE Reporting Station
Clear Clear  
Wind Chill:   Ceiling: Unl
Heat Index: 15°   Visibility: 10mi
Dew Point: 12°   Wind: 6mph
Humidity: 88%   Direction: 240°WSW
Pressure: 30.15"   Gusts: NA
Location:  37.77°N, 111.6°W
Report Text: KBCE 200953Z AUTO 24005KT 10SM CLR M09/M11 A3015 RMK AO2 SLP207 T10941111
Loading
Personal Weather Stations






























Interactive Weather Map New forecast layout! Learn more

10-Day Weather Forecast

Advertisements
Track Severe Weather on mobile